Terminal Aerodrome Forecast
Issued by NWS

Home | Current Version | Previous Version | Text Only | Print | Product List | Glossary On
Versions: 1 2 3 4 5 6 7 8 9 10 11 12 13 14 15 16 17
000
FTUS43 KDLH 232339
TAFHYR
TAF
KHYR 232339Z 2400/2424 32011G21KT P6SM VCSH SCT035 OVC050
     FM240300 34011G22KT P6SM VCSH OVC025
      TEMPO 2403/2407 5SM -SHRA BR OVC015
     FM240700 34014G28KT 5SM -RA BR OVC012
     FM241500 34016G30KT P6SM VCSH SCT015 BKN035
     FM241900 33016G30KT P6SM BKN050
     FM242200 33012KT P6SM SCT150=

USA.gov is the U.S. government's official web portal to all federal, state and local government web resources and services.